createdAt,value
2018-12-17T00:01:12.921Z,25.77
2018-12-17T00:03:44.134Z,19.00
2018-12-17T00:06:15.176Z,20.35
2018-12-17T00:08:44.842Z,26.17
2018-12-17T00:11:14.306Z,20.88
2018-12-17T00:13:43.485Z,24.25
2018-12-17T00:16:12.710Z,21.42
2018-12-17T00:18:41.861Z,24.92
2018-12-17T00:21:11.021Z,17.90
2018-12-17T00:23:40.133Z,25.90
2018-12-17T00:26:09.225Z,21.37
2018-12-17T00:28:38.377Z,19.05
2018-12-17T00:31:07.533Z,18.27
2018-12-17T00:33:36.721Z,17.92
2018-12-17T00:36:05.876Z,16.87
2018-12-17T00:38:35.015Z,20.08
2018-12-17T00:41:04.159Z,21.65
2018-12-17T00:43:33.607Z,23.32
2018-12-17T00:46:02.717Z,20.97
2018-12-17T00:48:32.345Z,26.17
2018-12-17T00:51:01.482Z,17.07
2018-12-17T00:53:30.533Z,27.67
2018-12-17T00:55:59.715Z,18.65
2018-12-17T00:58:28.887Z,16.73
2018-12-17T01:00:58.244Z,18.95
2018-12-17T01:03:28.384Z,19.52
2018-12-17T01:05:57.497Z,30.37
2018-12-17T01:08:26.691Z,18.37
2018-12-17T01:10:55.815Z,20.10
2018-12-17T01:13:24.988Z,16.02
2018-12-17T01:15:54.144Z,24.00
2018-12-17T01:18:23.396Z,21.75
2018-12-17T01:20:52.594Z,17.60
2018-12-17T01:23:21.704Z,19.37
2018-12-17T01:25:51.278Z,25.32
2018-12-17T01:28:22.293Z,26.02
2018-12-17T01:30:51.642Z,24.60
2018-12-17T01:33:20.792Z,20.92
2018-12-17T01:35:49.964Z,21.50
2018-12-17T01:38:19.134Z,18.12
2018-12-17T01:40:48.360Z,17.05
2018-12-17T01:43:17.479Z,22.13
2018-12-17T01:45:46.628Z,23.30
2018-12-17T01:48:15.755Z,23.05
2018-12-17T01:50:44.921Z,36.05
2018-12-17T01:53:14.029Z,21.45
2018-12-17T01:55:43.274Z,34.00
2018-12-17T01:58:12.482Z,21.45
2018-12-17T02:00:41.810Z,25.75
2018-12-17T02:03:11.041Z,22.42
2018-12-17T02:05:41.181Z,22.20
2018-12-17T02:08:10.335Z,27.30
2018-12-17T02:10:39.576Z,23.42
2018-12-17T02:13:08.627Z,26.30
2018-12-17T02:15:37.819Z,26.80
2018-12-17T02:18:06.979Z,21.75
2018-12-17T02:20:36.158Z,23.27
2018-12-17T02:23:05.371Z,18.17
2018-12-17T02:25:34.527Z,25.37
2018-12-17T02:28:03.669Z,22.40
2018-12-17T02:30:32.836Z,24.50
2018-12-17T02:33:01.990Z,26.00
2018-12-17T02:35:31.135Z,21.60
2018-12-17T02:38:00.296Z,34.10
2018-12-17T02:40:29.427Z,27.85
2018-12-17T02:42:58.561Z,22.80
2018-12-17T02:45:27.645Z,19.67
2018-12-17T02:47:56.819Z,22.10
2018-12-17T02:50:26.153Z,24.10
2018-12-17T02:52:55.246Z,36.42
2018-12-17T02:55:25.389Z,23.98
2018-12-17T02:57:54.527Z,21.40
2018-12-17T03:00:23.624Z,17.20
2018-12-17T03:02:52.779Z,30.43
2018-12-17T03:05:22.011Z,22.00
2018-12-17T03:07:51.179Z,18.57
2018-12-17T03:10:20.314Z,28.70
2018-12-17T03:12:49.458Z,18.37
2018-12-17T03:15:18.581Z,23.95
2018-12-17T03:17:47.780Z,23.80
2018-12-17T03:20:16.924Z,22.10
2018-12-17T03:22:46.079Z,34.73
2018-12-17T03:25:15.203Z,23.38
2018-12-17T03:27:44.359Z,36.77
2018-12-17T03:30:13.614Z,21.93
2018-12-17T03:32:42.772Z,20.68
2018-12-17T03:35:12.386Z,29.57
2018-12-17T03:37:41.543Z,19.45
2018-12-17T03:40:10.925Z,19.90
2018-12-17T03:42:40.070Z,21.50
2018-12-17T03:45:09.419Z,23.10
2018-12-17T03:47:38.590Z,28.80
2018-12-17T03:50:09.851Z,31.85
2018-12-17T03:52:38.959Z,22.25
2018-12-17T03:55:08.199Z,17.42
2018-12-17T03:57:37.471Z,21.07
2018-12-17T04:00:07.255Z,22.00
2018-12-17T04:02:36.415Z,19.48
2018-12-17T04:05:06.424Z,26.85
2018-12-17T04:07:36.622Z,19.48
2018-12-17T04:10:06.293Z,20.23
2018-12-17T04:12:35.452Z,18.77
2018-12-17T04:15:04.952Z,21.95
2018-12-17T04:17:35.205Z,27.02
2018-12-17T04:20:04.558Z,22.98
2018-12-17T04:22:33.695Z,17.02
2018-12-17T04:25:03.050Z,20.27
2018-12-17T04:27:33.242Z,23.10
2018-12-17T04:30:02.376Z,18.20
2018-12-17T04:32:32.640Z,20.05
2018-12-17T04:35:01.748Z,23.00
2018-12-17T04:37:31.997Z,20.62
2018-12-17T04:40:01.196Z,37.70
2018-12-17T04:42:30.343Z,18.17
2018-12-17T04:44:59.575Z,22.60
2018-12-17T04:47:28.721Z,28.10
2018-12-17T04:49:57.854Z,22.48
2018-12-17T04:52:27.039Z,20.90
2018-12-17T04:54:56.152Z,22.45
2018-12-17T04:57:25.276Z,15.35
2018-12-17T04:59:54.576Z,17.65
2018-12-17T05:02:23.722Z,15.48
2018-12-17T05:04:52.860Z,20.00
2018-12-17T05:07:21.988Z,19.80
2018-12-17T05:09:51.218Z,16.05
2018-12-17T05:12:20.547Z,16.07
2018-12-17T05:14:49.662Z,23.65
2018-12-17T05:17:18.971Z,15.00
2018-12-17T05:19:48.121Z,20.27
2018-12-17T05:22:17.250Z,19.80
2018-12-17T05:24:47.413Z,25.17
2018-12-17T05:27:17.259Z,23.95
2018-12-17T05:29:46.371Z,22.37
2018-12-17T05:32:15.468Z,22.90
2018-12-17T05:34:44.643Z,20.02
2018-12-17T05:37:14.501Z,26.00
2018-12-17T05:39:43.645Z,22.00
2018-12-17T05:42:12.797Z,21.23
2018-12-17T05:44:41.919Z,29.63
2018-12-17T05:47:11.045Z,20.43
2018-12-17T05:49:40.152Z,20.43
2018-12-17T05:52:09.253Z,22.82
2018-12-17T05:54:38.359Z,22.15
2018-12-17T05:57:07.549Z,32.33
2018-12-17T05:59:36.666Z,31.45
2018-12-17T06:02:05.870Z,23.12
2018-12-17T06:04:35.009Z,21.82
2018-12-17T06:07:04.228Z,25.82
2018-12-17T06:09:33.688Z,30.88
2018-12-17T06:12:02.968Z,53.65
2018-12-17T06:14:32.300Z,22.37
2018-12-17T06:17:01.431Z,43.35
2018-12-17T06:19:30.595Z,22.82
2018-12-17T06:21:59.709Z,28.80
2018-12-17T06:24:28.877Z,28.98
2018-12-17T06:26:58.057Z,24.55
2018-12-17T06:29:27.177Z,25.55
2018-12-17T06:31:56.377Z,26.48
2018-12-17T06:34:25.492Z,31.00
2018-12-17T06:36:54.641Z,22.98
2018-12-17T06:39:23.963Z,25.45
2018-12-17T06:41:53.121Z,23.00
2018-12-17T06:44:22.251Z,26.55
2018-12-17T06:46:51.485Z,30.45
2018-12-17T06:49:20.649Z,46.85
2018-12-17T06:51:50.189Z,25.90
2018-12-17T06:54:20.141Z,25.72
2018-12-17T06:56:49.318Z,35.23
2018-12-17T06:59:18.481Z,66.55
2018-12-17T07:01:48.223Z,21.65
2018-12-17T07:04:17.347Z,23.30
2018-12-17T07:06:46.487Z,39.33
2018-12-17T07:09:16.143Z,34.15
2018-12-17T07:11:45.261Z,24.90
2018-12-17T07:14:14.547Z,35.90
2018-12-17T07:16:44.875Z,24.05
2018-12-17T07:19:14.025Z,22.62
2018-12-17T07:21:43.144Z,24.55
2018-12-17T07:24:12.303Z,24.25
2018-12-17T07:26:41.472Z,27.70
2018-12-17T07:29:10.631Z,24.65
2018-12-17T07:31:39.815Z,21.75
2018-12-17T07:34:09.013Z,27.73
2018-12-17T07:36:38.159Z,30.35
2018-12-17T07:39:08.935Z,30.30
2018-12-17T07:41:38.211Z,23.40
2018-12-17T07:44:07.404Z,26.80
2018-12-17T07:46:36.570Z,18.70
2018-12-17T07:49:05.739Z,23.15
2018-12-17T07:51:34.911Z,31.33
2018-12-17T07:54:04.077Z,24.80
2018-12-17T07:56:33.258Z,23.73
2018-12-17T07:59:02.505Z,26.50
2018-12-17T08:01:31.685Z,19.15
2018-12-17T08:04:00.851Z,26.77
2018-12-17T08:06:30.032Z,25.27
2018-12-17T08:08:59.184Z,26.95
2018-12-17T08:11:28.284Z,28.65
2018-12-17T08:13:57.481Z,42.10
2018-12-17T08:16:26.769Z,27.82
2018-12-17T08:18:55.964Z,24.65
2018-12-17T08:21:25.150Z,22.70
2018-12-17T08:23:54.239Z,19.35
2018-12-17T08:26:23.447Z,28.50
2018-12-17T08:28:52.576Z,27.85
2018-12-17T08:31:21.711Z,32.08
2018-12-17T08:33:50.906Z,38.95
2018-12-17T08:36:20.015Z,28.60
2018-12-17T08:38:49.169Z,44.42
2018-12-17T08:41:18.347Z,31.48
2018-12-17T08:43:47.503Z,27.75
2018-12-17T08:46:18.515Z,31.17
2018-12-17T08:48:47.711Z,29.92
2018-12-17T08:51:17.123Z,39.63
2018-12-17T08:53:46.312Z,29.42
2018-12-17T08:56:16.564Z,27.25
2018-12-17T08:58:45.703Z,26.93
2018-12-17T09:01:15.008Z,30.10
2018-12-17T09:03:44.184Z,30.10
2018-12-17T09:06:13.416Z,25.65
2018-12-17T09:08:42.610Z,28.32
2018-12-17T09:11:11.708Z,31.37
2018-12-17T09:13:40.894Z,25.92
2018-12-17T09:16:10.052Z,24.63
2018-12-17T09:18:40.286Z,42.78
2018-12-17T09:21:09.556Z,25.02
2018-12-17T09:23:38.684Z,36.58
2018-12-17T09:26:07.827Z,30.12
2018-12-17T09:28:37.005Z,31.87
2018-12-17T09:31:06.155Z,31.62
2018-12-17T09:33:36.466Z,25.77
2018-12-17T09:36:05.600Z,28.38
2018-12-17T09:38:34.734Z,26.05
2018-12-17T09:41:03.980Z,28.77
2018-12-17T09:43:33.210Z,21.48
2018-12-17T09:46:02.330Z,33.10
2018-12-17T09:48:31.517Z,36.35
2018-12-17T09:51:00.700Z,22.98
2018-12-17T09:53:29.884Z,28.00
2018-12-17T09:55:59.077Z,20.75
2018-12-17T09:58:28.379Z,38.38
2018-12-17T10:00:57.485Z,31.23
2018-12-17T10:03:26.826Z,28.50
2018-12-17T10:05:55.972Z,27.13
2018-12-17T10:08:25.149Z,35.17
2018-12-17T10:10:54.302Z,34.03
2018-12-17T10:13:23.512Z,25.10
2018-12-17T10:15:52.812Z,22.55
2018-12-17T10:18:21.944Z,37.25
2018-12-17T10:20:51.258Z,22.55
2018-12-17T10:23:20.502Z,22.62
2018-12-17T10:25:49.594Z,24.15
2018-12-17T10:28:18.795Z,27.93
2018-12-17T10:30:47.911Z,36.48
2018-12-17T10:33:17.066Z,28.70
2018-12-17T10:35:46.226Z,31.80
2018-12-17T10:38:16.916Z,27.73
2018-12-17T10:40:46.133Z,31.73
2018-12-17T10:43:16.504Z,29.90
2018-12-17T10:45:45.670Z,35.08
2018-12-17T10:48:14.780Z,27.20
2018-12-17T10:50:43.914Z,25.45
2018-12-17T10:53:13.443Z,30.82
2018-12-17T10:55:42.603Z,49.70
2018-12-17T10:58:11.788Z,24.80
2018-12-17T11:00:46.522Z,24.23
2018-12-17T11:03:20.657Z,29.98
2018-12-17T11:05:50.437Z,29.77
2018-12-17T11:08:19.555Z,22.70
2018-12-17T11:10:48.661Z,29.40
2018-12-17T11:13:17.873Z,20.57
2018-12-17T11:15:47.037Z,23.77
2018-12-17T11:18:16.225Z,22.52
2018-12-17T11:20:46.563Z,22.35
2018-12-17T11:23:18.169Z,21.55
2018-12-17T11:25:47.582Z,44.48
2018-12-17T11:28:16.757Z,24.10
2018-12-17T11:30:46.600Z,30.57
2018-12-17T11:33:16.203Z,21.80
2018-12-17T11:35:45.386Z,24.65
2018-12-17T11:38:14.701Z,24.27
2018-12-17T11:40:45.070Z,30.60
2018-12-17T11:43:14.296Z,20.55
2018-12-17T11:45:43.485Z,26.07
2018-12-17T11:48:12.602Z,31.33
2018-12-17T11:50:41.809Z,28.80
2018-12-17T11:53:10.959Z,40.60
2018-12-17T11:55:40.109Z,35.20
2018-12-17T11:58:14.608Z,28.57
2018-12-17T12:01:18.088Z,22.32
2018-12-17T12:03:47.357Z,26.37
2018-12-17T12:06:16.651Z,27.32
2018-12-17T12:08:45.827Z,29.25
2018-12-17T12:11:15.053Z,38.65
2018-12-17T12:13:44.223Z,64.17
2018-12-17T12:16:13.453Z,27.75
2018-12-17T12:18:42.603Z,25.40
2018-12-17T12:21:11.778Z,30.92
2018-12-17T12:23:41.887Z,25.92
2018-12-17T12:26:11.167Z,23.07
2018-12-17T12:28:40.313Z,19.80
2018-12-17T12:31:09.472Z,14.95
2018-12-17T12:33:38.677Z,16.32
2018-12-17T12:36:07.852Z,23.57
2018-12-17T12:38:37.035Z,26.95
2018-12-17T12:41:06.502Z,27.40
2018-12-17T12:43:35.684Z,19.07
2018-12-17T12:46:04.875Z,18.15
2018-12-17T12:48:34.041Z,20.62
2018-12-17T12:51:03.203Z,27.42
2018-12-17T12:53:32.342Z,18.20
2018-12-17T12:56:01.508Z,18.55
2018-12-17T12:58:30.732Z,13.08
2018-12-17T13:00:59.852Z,20.62
2018-12-17T13:03:29.029Z,18.65
2018-12-17T13:05:58.195Z,22.10
2018-12-17T13:08:28.373Z,20.72
2018-12-17T13:10:57.531Z,28.60
2018-12-17T13:13:26.658Z,19.92
2018-12-17T13:15:55.770Z,21.55
2018-12-17T13:18:24.934Z,21.70
2018-12-17T13:20:54.087Z,20.32
2018-12-17T13:23:23.277Z,19.42
2018-12-17T13:25:53.044Z,21.77
2018-12-17T13:28:22.243Z,29.55
2018-12-17T13:30:51.380Z,21.77
2018-12-17T13:33:20.556Z,35.13
2018-12-17T13:35:49.708Z,25.23
2018-12-17T13:38:19.034Z,20.92
2018-12-17T13:40:48.109Z,30.27
2018-12-17T13:43:17.316Z,15.18
2018-12-17T13:45:46.421Z,22.58
2018-12-17T13:48:15.621Z,21.35
2018-12-17T13:50:44.769Z,19.65
2018-12-17T13:53:19.406Z,34.08
2018-12-17T13:55:48.505Z,21.70
2018-12-17T13:58:17.646Z,20.62
2018-12-17T14:00:46.915Z,24.85
2018-12-17T14:03:16.082Z,28.30
2018-12-17T14:05:45.360Z,17.80
2018-12-17T14:08:14.752Z,28.10
2018-12-17T14:10:49.430Z,26.97
2018-12-17T14:13:18.708Z,19.77
2018-12-17T14:15:54.350Z,28.20
2018-12-17T14:18:28.860Z,23.00
2018-12-17T14:22:07.091Z,32.75
2018-12-17T14:24:36.271Z,28.38
2018-12-17T14:27:05.532Z,28.67
2018-12-17T14:29:35.050Z,27.62
2018-12-17T14:32:05.251Z,22.75
2018-12-17T14:34:34.624Z,21.65
2018-12-17T14:37:03.989Z,23.45
2018-12-17T14:39:33.161Z,29.75
2018-12-17T14:42:02.331Z,27.40
2018-12-17T14:44:34.925Z,24.02
2018-12-17T14:47:04.250Z,28.92
2018-12-17T14:49:33.421Z,34.75
2018-12-17T14:52:02.596Z,34.85
2018-12-17T14:54:31.774Z,29.45
2018-12-17T14:57:01.005Z,31.07
2018-12-17T14:59:30.209Z,41.30
2018-12-17T15:01:59.422Z,28.17
2018-12-17T15:04:28.633Z,30.35
2018-12-17T15:06:57.921Z,30.52
2018-12-17T15:09:27.133Z,33.70
2018-12-17T15:11:56.287Z,29.98
2018-12-17T15:14:25.477Z,41.10
2018-12-17T15:16:55.661Z,39.05
2018-12-17T15:19:24.881Z,36.13
2018-12-17T15:21:54.051Z,32.23
2018-12-17T15:24:23.219Z,29.63
2018-12-17T15:26:52.417Z,35.78
2018-12-17T15:29:21.820Z,30.70
2018-12-17T15:31:51.076Z,34.20
2018-12-17T15:34:20.243Z,33.28
2018-12-17T15:36:49.391Z,35.43
2018-12-17T15:39:18.601Z,31.12
2018-12-17T15:41:47.812Z,36.85
2018-12-17T15:44:17.071Z,34.20
2018-12-17T15:46:46.320Z,34.48
2018-12-17T15:49:15.589Z,34.80
2018-12-17T15:51:44.961Z,40.45
2018-12-17T15:54:14.248Z,39.67
2018-12-17T15:56:43.379Z,41.42
2018-12-17T15:59:12.932Z,42.17
2018-12-17T16:01:42.065Z,40.08
2018-12-17T16:04:11.225Z,36.98
2018-12-17T16:06:40.500Z,30.68
2018-12-17T16:09:09.798Z,41.73
2018-12-17T16:11:39.080Z,39.73
2018-12-17T16:14:08.433Z,39.88
2018-12-17T16:16:37.624Z,45.98
2018-12-17T16:19:06.786Z,38.63
2018-12-17T16:21:36.040Z,55.30
2018-12-17T16:24:05.218Z,54.48
2018-12-17T16:26:34.467Z,45.28
2018-12-17T16:29:03.815Z,39.50
2018-12-17T16:31:33.204Z,83.58
2018-12-17T16:34:02.603Z,49.33
2018-12-17T16:36:32.260Z,46.42
2018-12-17T16:39:01.459Z,49.80
2018-12-17T16:41:30.834Z,42.88
2018-12-17T16:46:59.812Z,54.50
2018-12-17T16:49:29.009Z,43.80
2018-12-17T16:51:59.256Z,49.83
2018-12-17T16:54:28.674Z,40.67
2018-12-17T16:56:58.929Z,36.03
2018-12-17T16:59:28.007Z,45.95
2018-12-17T17:02:04.281Z,42.90
2018-12-17T17:04:28.343Z,58.15
2018-12-17T17:06:57.500Z,56.90
2018-12-17T17:09:26.651Z,44.75
2018-12-17T17:11:55.848Z,41.23
2018-12-17T17:14:25.025Z,45.60
2018-12-17T17:16:54.364Z,46.92
2018-12-17T17:19:23.499Z,50.03
2018-12-17T17:21:52.856Z,55.78
2018-12-17T17:24:22.035Z,42.62
2018-12-17T17:26:51.294Z,63.05
2018-12-17T17:29:20.440Z,51.00
2018-12-17T17:31:50.888Z,39.30
2018-12-17T17:34:20.145Z,46.85
2018-12-17T17:36:49.316Z,46.35
2018-12-17T17:39:18.492Z,47.75
2018-12-17T17:41:47.675Z,59.80
2018-12-17T17:44:16.825Z,38.25
2018-12-17T17:46:45.939Z,50.85
2018-12-17T17:49:15.210Z,72.15
2018-12-17T17:51:44.341Z,60.23
2018-12-17T17:54:13.789Z,56.48
2018-12-17T17:56:42.955Z,50.98
2018-12-17T17:59:12.096Z,55.03
2018-12-17T18:01:41.237Z,49.48
2018-12-17T18:04:10.374Z,57.78
2018-12-17T18:06:39.672Z,51.33
2018-12-17T18:09:10.034Z,54.83
2018-12-17T18:11:39.222Z,57.75
2018-12-17T18:14:08.370Z,56.18
2018-12-17T18:16:37.557Z,49.53
2018-12-17T18:19:06.737Z,71.53
2018-12-17T18:21:35.910Z,50.60
2018-12-17T18:24:05.080Z,60.50
2018-12-17T18:26:34.244Z,78.42
2018-12-17T18:30:32.603Z,72.87
2018-12-17T18:33:01.791Z,58.73
2018-12-17T18:35:31.044Z,62.48
2018-12-17T18:38:00.182Z,70.95
2018-12-17T18:40:29.373Z,71.92
2018-12-17T18:42:58.540Z,58.95
2018-12-17T18:45:27.735Z,82.25
2018-12-17T18:47:56.870Z,51.48
2018-12-17T18:50:26.190Z,58.87
2018-12-17T18:52:55.295Z,67.85
2018-12-17T18:55:24.544Z,55.38
2018-12-17T18:57:53.722Z,62.03
2018-12-17T19:00:22.818Z,60.50
2018-12-17T19:02:52.030Z,72.97
2018-12-17T19:05:21.112Z,57.65
2018-12-17T19:09:19.716Z,70.92
2018-12-17T19:11:48.900Z,56.30
2018-12-17T19:14:18.070Z,50.73
2018-12-17T19:16:47.300Z,68.35
2018-12-17T19:19:16.468Z,74.82
2018-12-17T19:21:45.666Z,59.63
2018-12-17T19:24:14.872Z,80.50
2018-12-17T19:26:44.004Z,63.08
2018-12-17T19:29:13.137Z,73.67
2018-12-17T19:31:42.330Z,86.17
2018-12-17T19:34:11.580Z,53.58
2018-12-17T19:36:40.777Z,64.95
2018-12-17T19:39:09.926Z,66.42
2018-12-17T19:41:41.072Z,64.47
2018-12-17T19:44:10.383Z,69.12
2018-12-17T19:46:39.664Z,63.95
2018-12-17T19:49:08.885Z,76.70
2018-12-17T19:51:38.079Z,63.05
2018-12-17T19:54:07.205Z,59.58
2018-12-17T19:56:36.438Z,56.05
2018-12-17T19:59:05.584Z,85.85
2018-12-17T20:01:34.720Z,64.37
2018-12-17T20:04:03.868Z,52.23
2018-12-17T20:06:33.059Z,84.10
2018-12-17T20:09:02.256Z,61.02
2018-12-17T20:11:32.690Z,67.53
2018-12-17T20:14:01.801Z,76.85
2018-12-17T20:16:30.934Z,83.47
2018-12-17T20:19:00.127Z,63.15
2018-12-17T20:21:29.277Z,69.87
2018-12-17T20:23:58.442Z,72.00
2018-12-17T20:26:27.611Z,63.13
2018-12-17T20:28:56.723Z,53.80
2018-12-17T20:31:25.935Z,80.15
2018-12-17T20:33:55.150Z,55.48
2018-12-17T20:36:24.413Z,57.17
2018-12-17T20:38:53.674Z,73.12
2018-12-17T20:41:22.879Z,61.92
2018-12-17T20:43:52.058Z,47.67
2018-12-17T20:46:21.277Z,56.88
2018-12-17T20:48:50.442Z,66.42
2018-12-17T20:51:19.627Z,64.85
2018-12-17T20:53:49.976Z,60.60
2018-12-17T20:56:19.664Z,54.00
2018-12-17T20:58:48.871Z,57.88
2018-12-17T21:01:18.085Z,52.40
2018-12-17T21:03:47.275Z,62.20
2018-12-17T21:06:16.942Z,58.73
2018-12-17T21:08:46.207Z,58.70
2018-12-17T21:11:15.485Z,61.25
2018-12-17T21:13:44.654Z,66.62
2018-12-17T21:16:14.202Z,76.72
2018-12-17T21:18:43.359Z,73.22
2018-12-17T21:21:12.543Z,92.47
2018-12-17T21:23:42.586Z,57.93
2018-12-17T21:26:11.873Z,63.42
2018-12-17T21:28:41.079Z,69.25
2018-12-17T21:31:10.366Z,42.55
2018-12-17T21:33:39.569Z,55.65
2018-12-17T21:36:08.803Z,57.15
2018-12-17T21:38:38.091Z,74.50
2018-12-17T21:41:07.359Z,63.48
2018-12-17T21:43:36.650Z,70.75
2018-12-17T21:46:05.813Z,77.45
2018-12-17T21:48:35.094Z,53.70
2018-12-17T21:51:04.345Z,53.10
2018-12-17T21:53:33.641Z,61.98
2018-12-17T21:56:02.834Z,65.85
2018-12-17T21:58:32.093Z,57.90
2018-12-17T22:01:01.267Z,64.70
2018-12-17T22:03:31.533Z,59.77
2018-12-17T22:06:00.740Z,71.02
2018-12-17T22:08:29.916Z,57.08
2018-12-17T22:10:59.236Z,59.35
2018-12-17T22:13:28.405Z,74.67
2018-12-17T22:15:57.560Z,66.45
2018-12-17T22:18:26.742Z,62.58
2018-12-17T22:20:56.100Z,58.08
2018-12-17T22:23:25.216Z,60.83
2018-12-17T22:25:54.515Z,68.55
2018-12-17T22:28:23.694Z,58.15
2018-12-17T22:30:52.990Z,112.83
2018-12-17T22:33:22.124Z,85.15
2018-12-17T22:35:51.308Z,63.05
2018-12-17T22:38:20.476Z,68.97
2018-12-17T22:40:49.679Z,64.12
2018-12-17T22:44:48.406Z,70.05
2018-12-17T22:47:17.525Z,67.92
2018-12-17T22:49:46.669Z,87.67
2018-12-17T22:52:15.833Z,74.87
2018-12-17T22:54:45.172Z,70.97
2018-12-17T22:57:14.552Z,69.72
2018-12-17T22:59:43.909Z,72.87
2018-12-17T23:02:13.081Z,79.92
2018-12-17T23:04:42.220Z,80.77
2018-12-17T23:07:12.477Z,84.22
2018-12-17T23:09:53.156Z,87.15
2018-12-17T23:12:33.506Z,73.90
2018-12-17T23:15:14.020Z,82.88
2018-12-17T23:17:42.700Z,80.42
2018-12-17T23:20:11.967Z,80.80
2018-12-17T23:22:43.862Z,78.05
2018-12-17T23:25:15.114Z,90.57
2018-12-17T23:27:49.794Z,94.97
2018-12-17T23:30:21.262Z,81.85
2018-12-17T23:32:50.496Z,82.65
2018-12-17T23:35:19.709Z,82.50
2018-12-17T23:37:48.917Z,87.10
2018-12-17T23:40:18.054Z,72.82
2018-12-17T23:42:48.336Z,78.30
2018-12-17T23:45:20.394Z,89.40
2018-12-17T23:47:49.731Z,86.85
2018-12-17T23:50:18.872Z,67.80
2018-12-17T23:52:48.044Z,84.35
2018-12-17T23:55:17.164Z,72.72
2018-12-17T23:57:46.360Z,128.00
